»·PEaware :: N275ND KAVX-KSAN

N275ND :: KAVX-KSAN

FLIGHT INFORMATION

Flight Status: Arrived
Operator: Privately registered:
United States
More flights under this callsign
Pilot: John A. (19135)
Aircraft: CESSNA 172 SKYHAWK
(C172)
More flights by this aircraft type
Origin: KAVX Catalina
United States
Destination: KSAN San Diego Intl-Lindbergh
United States
More flights between these airports :: More routes between these airports
Route: +SXC V208 OCN V23 MZB
File this flight plan on PilotEdge
Remarks: I-8 Rating
Altitude:
(Current/Filed)
5,000ft
Speed:
(Current/Filed)
115kts
Departed: 11-Oct-19 08:41 AM
Arrived: 11-Oct-19 10:40 AM
Distance/Time
Traveled:
74nm/1:59
Distance/Time
To Go:
Arrived

Flight Plot

Page will automatically refresh every two minutes.


Map Options




Map Legend


Flown Route
Filed Route
Departure Airport
Arrival Airport
Navaid (VOR, NDB)
Fix

Horizontal Profiles

Position Reports

Time Latitude Longitude Heading Altitude Ground
Speed
11-Oct-19 08:26 33.403367 -118.416847 0 1556ft 0kts
11-Oct-19 08:27 33.403367 -118.416847 0 1556ft 0kts
11-Oct-19 08:28 33.403367 -118.416847 0 1556ft 0kts
11-Oct-19 08:29 33.403367 -118.416847 0 1556ft 0kts
11-Oct-19 08:30 33.403367 -118.416847 0 1556ft 0kts
11-Oct-19 08:31 33.403367 -118.416847 0 1556ft 0kts
11-Oct-19 08:32 33.403367 -118.416847 0 1556ft 0kts
11-Oct-19 08:33 33.404927 -118.415213 53 1544ft 24kts
11-Oct-19 08:34 33.406043 -118.413343 55 1522ft 0kts
11-Oct-19 08:35 33.406277 -118.412983 60 1517ft 12kts
11-Oct-19 08:36 33.407186 -118.411379 337 1499ft 0kts
11-Oct-19 08:37 33.407186 -118.411379 337 1499ft 0kts
11-Oct-19 08:38 33.407186 -118.411379 337 1499ft 0kts
11-Oct-19 08:39 33.407239 -118.411405 335 1499ft 6kts
11-Oct-19 08:40 33.404275 -118.417022 233 1585ft 74kts
11-Oct-19 08:41 33.391493 -118.440096 239 2345ft 89kts
11-Oct-19 08:42 33.371788 -118.431935 101 2977ft 101kts
11-Oct-19 08:43 33.366765 -118.399671 101 3719ft 98kts
11-Oct-19 08:44 33.362035 -118.367133 98 4376ft 99kts
11-Oct-19 08:45 33.357825 -118.334043 98 4946ft 106kts
11-Oct-19 08:46 33.352716 -118.294734 99 4945ft 123kts
11-Oct-19 08:47 33.347334 -118.254255 99 4945ft 122kts
11-Oct-19 08:48 33.341937 -118.214050 99 4945ft 122kts
11-Oct-19 08:49 33.336450 -118.173754 99 4945ft 122kts
11-Oct-19 08:50 33.330971 -118.131005 97 4945ft 133kts
11-Oct-19 08:51 33.325802 -118.088520 98 4944ft 125kts
11-Oct-19 08:52 33.320626 -118.047737 98 4945ft 123kts
11-Oct-19 08:53 33.315391 -118.007097 98 4945ft 123kts
11-Oct-19 08:54 33.310087 -117.966529 98 4945ft 123kts
11-Oct-19 08:55 33.304691 -117.925858 98 4945ft 123kts
11-Oct-19 08:56 33.299248 -117.885413 99 4945ft 123kts
11-Oct-19 08:57 33.293692 -117.844714 99 4945ft 123kts
11-Oct-19 08:58 33.288088 -117.804240 99 4945ft 123kts
11-Oct-19 08:59 33.282406 -117.763756 99 4945ft 123kts
11-Oct-19 09:00 33.276630 -117.723163 99 4945ft 123kts
11-Oct-19 09:01 33.270445 -117.682715 100 4945ft 123kts
11-Oct-19 09:02 33.263943 -117.642406 100 4945ft 123kts
11-Oct-19 09:03 33.257371 -117.602152 100 4945ft 123kts
11-Oct-19 09:04 33.250722 -117.561745 100 4945ft 123kts
11-Oct-19 09:05 33.244488 -117.521420 89 4937ft 124kts
11-Oct-19 09:06 33.241231 -117.480567 96 4945ft 123kts
11-Oct-19 09:07 33.237041 -117.439164 96 4945ft 123kts
11-Oct-19 09:08 33.215074 -117.409044 145 4945ft 123kts
11-Oct-19 09:09 33.183466 -117.392058 161 4945ft 123kts
11-Oct-19 09:10 33.150763 -117.378815 160 4945ft 123kts
11-Oct-19 09:11 33.118363 -117.365109 160 4945ft 123kts
11-Oct-19 09:12 33.085941 -117.351496 160 4945ft 123kts
11-Oct-19 09:13 33.053263 -117.337433 145 4940ft 123kts
11-Oct-19 09:14 33.039590 -117.298365 109 4945ft 123kts
11-Oct-19 09:15 33.027487 -117.256588 109 4945ft 123kts
11-Oct-19 09:16 32.999595 -117.251199 209 4945ft 123kts
11-Oct-19 09:26 33.403367 -118.416847 0 1556ft 0kts
11-Oct-19 09:27 33.403367 -118.416847 0 1556ft 0kts
11-Oct-19 09:28 33.403367 -118.416847 0 1556ft 0kts
11-Oct-19 09:29 33.403367 -118.416847 0 1556ft 0kts
11-Oct-19 09:30 33.403367 -118.416847 0 1556ft 0kts
11-Oct-19 09:31 33.403367 -118.416847 0 1556ft 0kts
11-Oct-19 09:32 33.403367 -118.416847 0 1556ft 0kts
11-Oct-19 09:33 33.404363 -118.416196 53 1551ft 14kts
11-Oct-19 09:34 33.407215 -118.411366 334 1499ft 0kts
11-Oct-19 09:35 33.407215 -118.411366 334 1499ft 0kts
11-Oct-19 09:36 33.407215 -118.411366 334 1499ft 0kts
11-Oct-19 09:37 33.407461 -118.411573 235 1500ft 0kts
11-Oct-19 09:38 33.398809 -118.427300 237 1880ft 87kts
11-Oct-19 09:39 33.382053 -118.445131 180 2708ft 88kts
11-Oct-19 09:40 33.358711 -118.440422 95 3410ft 94kts
11-Oct-19 09:41 33.356652 -118.408690 96 4116ft 94kts
11-Oct-19 09:42 33.352440 -118.376953 99 4764ft 96kts
11-Oct-19 09:43 33.347636 -118.341171 99 4956ft 124kts
11-Oct-19 09:44 33.345112 -118.301294 93 4953ft 117kts
11-Oct-19 09:45 33.343454 -118.262532 92 4953ft 116kts
11-Oct-19 09:46 33.341213 -118.224020 96 4953ft 116kts
11-Oct-19 09:47 33.337452 -118.185709 96 4953ft 116kts
11-Oct-19 09:48 33.333746 -118.147335 96 4953ft 116kts
11-Oct-19 09:49 33.330103 -118.108933 96 4953ft 116kts
11-Oct-19 09:50 33.326489 -118.070527 97 4953ft 116kts
11-Oct-19 09:51 33.321889 -118.032335 98 4953ft 116kts
11-Oct-19 09:52 33.317237 -117.993366 97 4954ft 120kts
11-Oct-19 09:53 33.312370 -117.953838 98 4953ft 120kts
11-Oct-19 09:54 33.307186 -117.914236 98 4953ft 120kts
11-Oct-19 09:55 33.302075 -117.874658 98 4953ft 120kts
11-Oct-19 09:56 33.297032 -117.835070 98 4953ft 120kts
11-Oct-19 09:57 33.292042 -117.795349 98 4953ft 120kts
11-Oct-19 09:59 33.287134 -117.755719 98 4953ft 120kts
11-Oct-19 10:00 33.281807 -117.716153 99 4953ft 120kts
11-Oct-19 10:01 33.276454 -117.676604 98 4953ft 120kts
11-Oct-19 10:02 33.271122 -117.637017 99 4953ft 120kts
11-Oct-19 10:03 33.265344 -117.597634 99 4953ft 120kts
11-Oct-19 10:04 33.259758 -117.558022 98 4953ft 120kts
11-Oct-19 10:05 33.254676 -117.518417 98 4953ft 120kts
11-Oct-19 10:06 33.249646 -117.478665 98 4953ft 120kts
11-Oct-19 10:07 33.244602 -117.438240 98 4953ft 120kts
11-Oct-19 10:08 33.225526 -117.407985 153 4953ft 120kts
11-Oct-19 10:09 33.194566 -117.391912 162 4953ft 120kts
11-Oct-19 10:10 33.162457 -117.380405 162 4953ft 120kts
11-Oct-19 10:11 33.129992 -117.370594 164 4953ft 120kts
11-Oct-19 10:12 33.098200 -117.358079 159 4953ft 120kts
11-Oct-19 10:13 33.066002 -117.344088 160 4953ft 120kts
11-Oct-19 10:14 33.034328 -117.330240 159 4953ft 120kts
11-Oct-19 10:15 33.002924 -117.316428 159 4953ft 120kts
11-Oct-19 10:16 32.971178 -117.303063 160 4953ft 120kts
11-Oct-19 10:17 32.939501 -117.289713 160 4953ft 120kts
11-Oct-19 10:18 32.907343 -117.276076 160 4953ft 120kts
11-Oct-19 10:18 32.879781 -117.264321 160 4953ft 120kts
11-Oct-19 10:20 32.842436 -117.248293 160 4953ft 120kts
11-Oct-19 10:21 32.809547 -117.234082 160 4953ft 120kts
11-Oct-19 10:21 32.783765 -117.220800 127 4950ft 120kts
11-Oct-19 10:22 32.774659 -117.181777 103 4953ft 120kts
11-Oct-19 10:24 32.766936 -117.135637 100 4953ft 120kts
11-Oct-19 10:24 32.761877 -117.102454 98 4953ft 120kts
11-Oct-19 10:25 32.755145 -117.059864 100 4953ft 120kts
11-Oct-19 10:26 32.748454 -117.017514 100 4953ft 120kts
11-Oct-19 10:27 32.741969 -116.977296 101 4953ft 120kts
11-Oct-19 10:28 32.735292 -116.937920 101 4953ft 120kts
11-Oct-19 10:29 32.721926 -116.904943 175 4943ft 111kts
11-Oct-19 10:30 32.692065 -116.913389 194 4397ft 115kts
11-Oct-19 10:31 32.675433 -116.938404 272 3951ft 109kts
11-Oct-19 10:32 32.681804 -116.973297 289 3807ft 106kts
11-Oct-19 10:33 32.690548 -117.007882 282 3595ft 110kts
11-Oct-19 10:34 32.696457 -117.040910 283 3369ft 97kts
11-Oct-19 10:35 32.703718 -117.076002 285 2504ft 100kts
11-Oct-19 10:36 32.712360 -117.108543 295 1438ft 99kts
11-Oct-19 10:37 32.720842 -117.138161 287 854ft 91kts
11-Oct-19 10:38 32.726918 -117.163028 284 406ft 70kts
11-Oct-19 10:39 32.732231 -117.184034 285 15ft 27kts
11-Oct-19 10:40 32.733599 -117.184718 304 17ft 0kts
11-Oct-19 10:41 32.734658 -117.189394 285 17ft 0kts
11-Oct-19 10:42 32.733457 -117.183535 99 17ft 1kts
11-Oct-19 10:43 32.733185 -117.178533 35 20ft 0kts
11-Oct-19 10:44 32.733185 -117.178533 35 20ft 0kts

Navigation Log

Ident Type
Flight plan parsing failed, navigation log unavailable